Time;durP1;ratioP1;P1;durP2;ratioP2;P2;SDS_P1;SDS_P2;PMS_P1;PMS_P2;Temp;Humidity;BMP_temperature;BMP_pressure;BME280_temperature;BME280_humidity;BME280_pressure;Samples;Min_cycle;Max_cycle;Signal;HPM_P1;HPM_P2
2023/04/25 00:02:19;;;;;;;6.63;2.90;;;;;;;;;;5027414;28;20490;-66
2023/04/25 00:04:46;;;;;;;9.10;3.90;;;;;;;;;;5027348;28;20088;-69
2023/04/25 00:07:11;;;;;;;9.45;3.80;;;;;;;;;;5027091;28;20487;-66
2023/04/25 00:09:36;;;;;;;8.60;3.78;;;;;;;;;;5027281;28;20025;-70
2023/04/25 00:12:01;;;;;;;11.93;4.50;;;;;;;;;;5027440;28;20017;-70
2023/04/25 00:14:27;;;;;;;8.02;3.53;;;;;;;;;;5027009;28;20028;-69
2023/04/25 00:16:54;;;;;;;7.97;3.90;;;;;;;;;;5030322;28;20021;-69
2023/04/25 00:19:19;;;;;;;8.90;4.28;;;;;;;;;;5030877;28;20033;-70
2023/04/25 00:21:46;;;;;;;11.48;4.20;;;;;;;;;;5030763;28;20087;-69
2023/04/25 00:24:11;;;;;;;9.88;4.38;;;;;;;;;;5025887;28;20132;-66
2023/04/25 00:26:36;;;;;;;8.55;4.00;;;;;;;;;;5030968;28;20630;-70
2023/04/25 00:29:02;;;;;;;9.35;4.20;;;;;;;;;;5030583;28;20399;-69
2023/04/25 00:31:28;;;;;;;8.85;4.00;;;;;;;;;;5030949;28;20017;-69
2023/04/25 00:33:54;;;;;;;11.30;4.18;;;;;;;;;;5030237;28;20020;-68
2023/04/25 00:36:19;;;;;;;8.90;4.35;;;;;;;;;;5030333;28;20017;-71
2023/04/25 00:38:44;;;;;;;11.18;4.25;;;;;;;;;;5023212;28;20026;-71
2023/04/25 00:41:10;;;;;;;10.25;4.43;;;;;;;;;;5016999;28;20021;-68
2023/04/25 00:43:36;;;;;;;8.15;4.13;;;;;;;;;;5028492;28;20024;-71
2023/04/25 00:46:01;;;;;;;10.10;3.88;;;;;;;;;;5030737;28;20022;-70
2023/04/25 00:48:27;;;;;;;12.45;4.57;;;;;;;;;;5030330;28;20070;-69
2023/04/25 00:50:57;;;;;;;7.72;3.97;;;;;;;;;;5028620;28;20032;-66
2023/04/25 00:53:23;;;;;;;11.57;4.55;;;;;;;;;;5029586;28;20032;-68
2023/04/25 00:55:50;;;;;;;6.38;3.40;;;;;;;;;;5030152;28;20021;-69
2023/04/25 00:58:16;;;;;;;10.68;4.07;;;;;;;;;;5029969;28;20140;-70
2023/04/25 01:00:41;;;;;;;9.18;4.20;;;;;;;;;;5017952;28;20117;-68
2023/04/25 01:03:07;;;;;;;11.07;4.50;;;;;;;;;;5029557;28;20110;-70
2023/04/25 01:05:32;;;;;;;7.32;3.83;;;;;;;;;;5020176;28;20087;-69
2023/04/25 01:07:58;;;;;;;12.30;4.40;;;;;;;;;;5008619;28;20033;-70
2023/04/25 01:10:23;;;;;;;8.55;4.68;;;;;;;;;;5028503;28;20021;-69
2023/04/25 01:12:48;;;;;;;9.75;4.45;;;;;;;;;;5030022;28;20556;-70
2023/04/25 01:15:14;;;;;;;10.75;4.32;;;;;;;;;;5029314;28;20041;-70
2023/04/25 01:17:40;;;;;;;9.32;4.22;;;;;;;;;;5021913;28;20022;-66
2023/04/25 01:20:07;;;;;;;8.07;3.72;;;;;;;;;;5026775;28;20029;-69
2023/04/25 01:22:32;;;;;;;11.38;4.05;;;;;;;;;;5029523;28;20069;-68
2023/04/25 01:24:58;;;;;;;12.20;4.50;;;;;;;;;;5029349;28;20475;-70
2023/04/25 01:27:23;;;;;;;12.30;3.95;;;;;;;;;;5028503;28;20340;-69
2023/04/25 01:29:49;;;;;;;9.52;3.17;;;;;;;;;;5029216;28;20025;-65
2023/04/25 01:32:15;;;;;;;9.95;4.10;;;;;;;;;;5028040;28;20048;-68
2023/04/25 01:34:40;;;;;;;10.65;3.85;;;;;;;;;;5026206;28;20026;-69
2023/04/25 01:37:05;;;;;;;10.50;4.25;;;;;;;;;;5028784;28;20451;-70
2023/04/25 01:39:30;;;;;;;9.02;3.78;;;;;;;;;;5028987;28;20576;-68
2023/04/25 01:41:56;;;;;;;11.32;3.92;;;;;;;;;;5029443;28;20148;-69
2023/04/25 01:44:21;;;;;;;10.73;4.68;;;;;;;;;;5028761;28;20034;-65
2023/04/25 01:46:46;;;;;;;10.88;4.07;;;;;;;;;;5028818;28;20021;-68
2023/04/25 01:49:12;;;;;;;11.10;3.95;;;;;;;;;;5029046;28;20101;-67
2023/04/25 01:51:37;;;;;;;10.48;3.75;;;;;;;;;;5029019;28;20131;-69
2023/04/25 01:54:02;;;;;;;8.10;4.45;;;;;;;;;;5028427;28;20106;-69
2023/04/25 01:56:31;;;;;;;7.75;4.35;;;;;;;;;;5029065;28;20021;-66
2023/04/25 01:58:57;;;;;;;9.90;4.25;;;;;;;;;;5028804;28;20521;-71
2023/04/25 02:01:22;;;;;;;10.35;4.07;;;;;;;;;;5021827;28;20112;-67
2023/04/25 02:03:47;;;;;;;14.23;4.28;;;;;;;;;;5027848;28;20021;-67
2023/04/25 02:06:12;;;;;;;9.43;4.15;;;;;;;;;;5028632;28;20039;-70
2023/04/25 02:08:38;;;;;;;11.00;4.70;;;;;;;;;;5028223;28;20109;-69
2023/04/25 02:11:03;;;;;;;7.63;3.60;;;;;;;;;;5029154;28;20041;-69
2023/04/25 02:13:28;;;;;;;11.13;4.00;;;;;;;;;;5028708;28;20021;-68
2023/04/25 02:15:53;;;;;;;10.75;3.97;;;;;;;;;;5028929;28;20044;-68
2023/04/25 02:18:20;;;;;;;11.50;3.80;;;;;;;;;;5028769;28;20502;-68
2023/04/25 02:20:46;;;;;;;10.35;3.83;;;;;;;;;;5028542;28;20029;-69
2023/04/25 02:23:11;;;;;;;8.95;3.42;;;;;;;;;;5029007;28;20037;-66
2023/04/25 02:25:36;;;;;;;14.60;3.88;;;;;;;;;;5028965;28;20028;-69
2023/04/25 02:28:01;;;;;;;6.63;3.45;;;;;;;;;;5028347;28;20017;-69
2023/04/25 02:30:27;;;;;;;7.95;4.13;;;;;;;;;;5028328;28;20188;-67
2023/04/25 02:32:52;;;;;;;8.32;3.40;;;;;;;;;;5026690;28;20423;-69
2023/04/25 02:35:17;;;;;;;10.02;3.30;;;;;;;;;;5027883;28;20021;-68
2023/04/25 02:37:43;;;;;;;7.60;3.63;;;;;;;;;;5028278;28;20104;-69
2023/04/25 02:40:08;;;;;;;8.50;3.25;;;;;;;;;;5027723;28;20025;-68
2023/04/25 02:42:34;;;;;;;10.50;3.72;;;;;;;;;;5026768;28;20602;-71
2023/04/25 02:44:59;;;;;;;11.52;4.28;;;;;;;;;;5026304;28;20028;-65
2023/04/25 02:47:24;;;;;;;8.93;4.38;;;;;;;;;;5028133;28;20032;-69
2023/04/25 02:49:49;;;;;;;8.45;4.15;;;;;;;;;;5027759;28;20025;-68
2023/04/25 02:52:15;;;;;;;8.02;3.95;;;;;;;;;;5027953;28;20013;-68
2023/04/25 02:54:40;;;;;;;14.25;4.35;;;;;;;;;;5027440;28;20553;-68
2023/04/25 02:57:06;;;;;;;13.35;4.38;;;;;;;;;;5027733;28;20021;-67
2023/04/25 02:59:31;;;;;;;8.55;4.05;;;;;;;;;;5028138;28;20017;-68
2023/04/25 03:01:56;;;;;;;8.52;3.60;;;;;;;;;;5022900;28;20024;-70
2023/04/25 03:04:23;;;;;;;10.85;3.90;;;;;;;;;;5027499;28;20048;-69
2023/04/25 03:06:49;;;;;;;11.80;4.28;;;;;;;;;;5028567;28;20014;-67
2023/04/25 03:09:14;;;;;;;10.05;4.03;;;;;;;;;;5024748;28;20066;-66
2023/04/25 03:11:40;;;;;;;10.23;4.03;;;;;;;;;;5027899;28;20490;-70
2023/04/25 03:14:05;;;;;;;8.98;4.30;;;;;;;;;;5027449;28;20025;-67
2023/04/25 03:16:30;;;;;;;10.10;3.95;;;;;;;;;;5027837;28;20127;-69
2023/04/25 03:18:56;;;;;;;10.32;4.40;;;;;;;;;;5027746;28;20095;-67
2023/04/25 03:21:21;;;;;;;9.18;4.00;;;;;;;;;;5028007;28;20038;-68
2023/04/25 03:23:46;;;;;;;12.10;4.38;;;;;;;;;;5027299;28;20090;-68
2023/04/25 03:26:11;;;;;;;14.80;4.40;;;;;;;;;;5027887;28;20188;-68
2023/04/25 03:28:37;;;;;;;6.32;3.08;;;;;;;;;;5027777;28;20064;-68
2023/04/25 03:31:02;;;;;;;8.60;4.18;;;;;;;;;;5027450;28;20022;-69
2023/04/25 03:33:27;;;;;;;9.02;4.18;;;;;;;;;;5024693;28;20531;-68
2023/04/25 03:35:52;;;;;;;11.68;4.45;;;;;;;;;;5027291;28;20375;-69
2023/04/25 03:38:18;;;;;;;8.27;3.80;;;;;;;;;;5027573;28;20093;-69
2023/04/25 03:40:43;;;;;;;12.35;4.78;;;;;;;;;;5027256;28;20052;-66
2023/04/25 03:43:08;;;;;;;11.38;4.78;;;;;;;;;;5027331;28;20013;-69
2023/04/25 03:45:33;;;;;;;9.52;4.00;;;;;;;;;;5027602;28;20498;-66
2023/04/25 03:47:59;;;;;;;8.75;4.35;;;;;;;;;;5024109;28;20030;-69
2023/04/25 03:50:24;;;;;;;9.88;3.88;;;;;;;;;;5027643;28;20030;-68
2023/04/25 03:52:49;;;;;;;11.60;4.22;;;;;;;;;;5030766;28;20494;-69
2023/04/25 03:55:15;;;;;;;10.60;4.05;;;;;;;;;;5030586;28;20056;-69
2023/04/25 03:57:40;;;;;;;11.25;5.05;;;;;;;;;;5024642;28;20057;-70
2023/04/25 04:00:06;;;;;;;15.48;5.20;;;;;;;;;;5026535;28;20120;-65
2023/04/25 04:02:32;;;;;;;13.65;4.95;;;;;;;;;;5025645;28;20037;-68
2023/04/25 04:04:58;;;;;;;10.82;4.65;;;;;;;;;;5023924;28;20032;-69
2023/04/25 04:07:23;;;;;;;9.75;4.85;;;;;;;;;;5029205;28;20036;-68
2023/04/25 04:09:48;;;;;;;15.52;5.30;;;;;;;;;;5029397;28;20022;-72
2023/04/25 04:12:13;;;;;;;16.40;4.90;;;;;;;;;;5019767;28;20036;-71
2023/04/25 04:14:39;;;;;;;14.32;6.07;;;;;;;;;;5021129;28;20041;-69
2023/04/25 04:17:05;;;;;;;14.45;6.78;;;;;;;;;;5021007;28;20025;-67
2023/04/25 04:19:31;;;;;;;17.65;6.10;;;;;;;;;;5023821;28;20030;-71
2023/04/25 04:21:56;;;;;;;19.38;5.85;;;;;;;;;;5029641;28;20028;-69
2023/04/25 04:24:21;;;;;;;13.30;6.43;;;;;;;;;;5030048;28;20025;-67
2023/04/25 04:26:46;;;;;;;16.83;6.25;;;;;;;;;;5028842;28;20142;-70
2023/04/25 04:29:20;;;;;;;13.05;6.55;;;;;;;;;;5027006;28;20038;-67
2023/04/25 04:31:45;;;;;;;16.00;6.30;;;;;;;;;;5031239;28;20017;-67
2023/04/25 04:34:10;;;;;;;15.48;6.43;;;;;;;;;;5024209;28;20030;-68
2023/04/25 04:36:35;;;;;;;17.58;6.30;;;;;;;;;;5030699;28;20036;-71
2023/04/25 04:39:03;;;;;;;12.48;5.38;;;;;;;;;;5026494;28;20072;-69
2023/04/25 04:41:28;;;;;;;16.30;6.18;;;;;;;;;;5029871;28;20084;-71
2023/04/25 04:43:55;;;;;;;12.57;5.45;;;;;;;;;;5022530;28;20121;-69
2023/04/25 04:46:21;;;;;;;15.35;6.22;;;;;;;;;;5030952;28;20041;-70
2023/04/25 04:48:47;;;;;;;10.43;5.63;;;;;;;;;;5025064;28;20498;-71
2023/04/25 04:51:12;;;;;;;21.25;6.80;;;;;;;;;;5030258;28;20487;-67
2023/04/25 04:53:37;;;;;;;11.07;5.43;;;;;;;;;;5023218;28;20018;-69
2023/04/25 04:56:02;;;;;;;15.40;6.72;;;;;;;;;;5030220;28;20029;-68
2023/04/25 04:58:29;;;;;;;15.60;5.53;;;;;;;;;;5021109;28;20044;-69
2023/04/25 05:00:55;;;;;;;14.48;5.95;;;;;;;;;;5028692;28;20038;-70
2023/04/25 05:03:20;;;;;;;17.35;6.00;;;;;;;;;;5029341;28;20029;-70
2023/04/25 05:05:45;;;;;;;18.55;6.85;;;;;;;;;;5030722;28;20018;-71
2023/04/25 05:08:11;;;;;;;19.08;6.35;;;;;;;;;;5027491;28;20025;-65
2023/04/25 05:10:36;;;;;;;14.40;6.60;;;;;;;;;;5024057;28;20017;-70
2023/04/25 05:13:01;;;;;;;17.42;6.38;;;;;;;;;;5030226;28;20044;-67
2023/04/25 05:15:26;;;;;;;15.38;6.28;;;;;;;;;;5017534;28;20029;-69
2023/04/25 05:17:52;;;;;;;15.00;6.15;;;;;;;;;;5024934;28;20025;-67
2023/04/25 05:20:18;;;;;;;16.70;5.57;;;;;;;;;;5019254;28;20032;-68
2023/04/25 05:22:44;;;;;;;18.23;6.18;;;;;;;;;;5030093;28;20040;-72
2023/04/25 05:25:09;;;;;;;17.60;5.63;;;;;;;;;;5016669;28;20022;-70
2023/04/25 05:27:34;;;;;;;15.20;6.15;;;;;;;;;;5027004;28;20387;-70
2023/04/25 05:30:00;;;;;;;19.00;5.88;;;;;;;;;;5027906;28;20021;-68
2023/04/25 05:32:26;;;;;;;19.67;6.15;;;;;;;;;;5029629;28;20021;-69
2023/04/25 05:34:51;;;;;;;15.23;5.10;;;;;;;;;;5025241;28;20059;-68
2023/04/25 05:37:17;;;;;;;12.43;5.25;;;;;;;;;;5027789;28;20047;-71
2023/04/25 05:39:42;;;;;;;22.33;5.63;;;;;;;;;;5029597;28;20021;-69
2023/04/25 05:42:07;;;;;;;9.85;5.25;;;;;;;;;;5029469;28;20078;-69
2023/04/25 05:44:32;;;;;;;16.63;5.82;;;;;;;;;;5028589;28;20091;-67
2023/04/25 05:46:58;;;;;;;16.30;5.28;;;;;;;;;;5029341;28;20028;-69
2023/04/25 05:49:23;;;;;;;12.48;4.85;;;;;;;;;;5029422;28;20021;-68
2023/04/25 05:51:48;;;;;;;20.33;5.47;;;;;;;;;;5075097;23;20487;-63
2023/04/25 05:54:14;;;;;;;15.95;5.40;;;;;;;;;;5030544;28;20471;-64
2023/04/25 05:56:39;;;;;;;13.48;5.60;;;;;;;;;;5030970;28;20017;-63
2023/04/25 05:59:04;;;;;;;10.65;5.07;;;;;;;;;;5031470;28;20017;-63
2023/04/25 06:01:30;;;;;;;13.50;6.07;;;;;;;;;;5029443;28;20538;-64
2023/04/25 06:03:55;;;;;;;15.52;5.88;;;;;;;;;;5023903;28;20044;-66
2023/04/25 06:06:20;;;;;;;14.05;5.75;;;;;;;;;;5016467;28;20060;-58
2023/04/25 06:08:45;;;;;;;10.80;4.53;;;;;;;;;;5023616;28;20137;-63
2023/04/25 06:11:11;;;;;;;14.73;5.53;;;;;;;;;;5030299;28;20445;-63
2023/04/25 06:13:36;;;;;;;15.00;5.35;;;;;;;;;;5029432;28;20049;-63
2023/04/25 06:16:01;;;;;;;13.65;5.65;;;;;;;;;;5030001;28;20033;-63
2023/04/25 06:18:27;;;;;;;9.82;4.80;;;;;;;;;;5031156;28;20056;-62
2023/04/25 06:20:52;;;;;;;10.15;4.70;;;;;;;;;;5030672;28;20036;-61
2023/04/25 06:23:17;;;;;;;15.00;6.05;;;;;;;;;;5030679;28;20100;-58
2023/04/25 06:25:42;;;;;;;10.45;5.63;;;;;;;;;;5030010;28;20025;-64
2023/04/25 06:28:08;;;;;;;15.50;5.57;;;;;;;;;;5030886;28;20017;-63
2023/04/25 06:30:33;;;;;;;12.15;4.85;;;;;;;;;;5031244;28;20034;-63
2023/04/25 06:32:58;;;;;;;10.00;4.80;;;;;;;;;;5025201;28;20023;-64
2023/04/25 06:35:23;;;;;;;13.00;4.93;;;;;;;;;;5031416;28;20022;-60
2023/04/25 06:37:49;;;;;;;13.13;4.95;;;;;;;;;;5031485;28;20108;-60
2023/04/25 06:40:14;;;;;;;15.90;5.63;;;;;;;;;;5032129;28;20032;-64
2023/04/25 06:42:40;;;;;;;9.05;4.65;;;;;;;;;;5032569;28;20026;-64
2023/04/25 06:45:05;;;;;;;11.90;4.40;;;;;;;;;;5031375;28;20075;-63
2023/04/25 06:47:30;;;;;;;10.73;4.57;;;;;;;;;;5030841;28;20071;-64
2023/04/25 06:49:56;;;;;;;20.27;4.55;;;;;;;;;;5030950;28;20060;-61
2023/04/25 06:52:21;;;;;;;9.30;4.40;;;;;;;;;;5025812;28;20021;-63
2023/04/25 06:54:46;;;;;;;11.88;5.13;;;;;;;;;;5032341;28;20025;-63
2023/04/25 06:57:11;;;;;;;14.88;5.07;;;;;;;;;;5034343;28;20034;-63
2023/04/25 06:59:36;;;;;;;17.00;5.13;;;;;;;;;;5028428;28;20056;-64
2023/04/25 07:02:02;;;;;;;9.32;4.90;;;;;;;;;;5021543;28;20045;-63
2023/04/25 07:04:27;;;;;;;14.35;5.10;;;;;;;;;;5029415;28;20022;-61
2023/04/25 07:06:52;;;;;;;14.50;4.88;;;;;;;;;;5030083;28;20025;-60
2023/04/25 07:09:17;;;;;;;15.88;4.88;;;;;;;;;;5022853;28;20022;-63
2023/04/25 07:11:43;;;;;;;16.70;5.72;;;;;;;;;;5029912;28;20041;-61
2023/04/25 07:14:08;;;;;;;13.15;5.30;;;;;;;;;;5029251;28;20103;-65
2023/04/25 07:16:33;;;;;;;14.13;4.70;;;;;;;;;;5029504;28;20044;-64
2023/04/25 07:18:59;;;;;;;12.38;5.68;;;;;;;;;;5028681;28;20129;-65
2023/04/25 07:21:25;;;;;;;15.38;6.10;;;;;;;;;;5030340;28;20076;-62
2023/04/25 07:23:50;;;;;;;13.00;5.32;;;;;;;;;;5028476;28;20457;-63
2023/04/25 07:26:16;;;;;;;15.07;5.28;;;;;;;;;;5030232;28;20490;-64
2023/04/25 07:28:41;;;;;;;15.68;5.05;;;;;;;;;;5034213;28;20060;-64
2023/04/25 07:31:06;;;;;;;13.52;4.80;;;;;;;;;;5033118;28;20021;-63
2023/04/25 07:33:32;;;;;;;16.83;5.70;;;;;;;;;;5031808;28;20560;-63
2023/04/25 07:35:57;;;;;;;15.40;5.28;;;;;;;;;;5033887;28;20541;-64
2023/04/25 07:38:23;;;;;;;13.60;5.85;;;;;;;;;;5033057;28;20029;-64
2023/04/25 07:40:48;;;;;;;16.83;6.03;;;;;;;;;;5034141;28;20036;-64
2023/04/25 07:43:16;;;;;;;12.65;6.03;;;;;;;;;;5032453;28;20017;-64
2023/04/25 07:45:42;;;;;;;12.00;5.57;;;;;;;;;;5032122;28;20071;-64
2023/04/25 07:48:07;;;;;;;12.45;5.10;;;;;;;;;;5034192;28;20114;-64
2023/04/25 07:50:32;;;;;;;8.48;4.95;;;;;;;;;;5032785;28;20024;-64
2023/04/25 07:52:59;;;;;;;10.63;5.15;;;;;;;;;;5028281;28;20139;-65
2023/04/25 07:55:24;;;;;;;15.05;5.55;;;;;;;;;;5028691;28;20404;-64
2023/04/25 07:57:49;;;;;;;17.95;4.97;;;;;;;;;;5020051;28;20024;-64
2023/04/25 08:00:15;;;;;;;10.10;4.63;;;;;;;;;;5030988;28;20021;-63
2023/04/25 08:02:40;;;;;;;12.73;4.65;;;;;;;;;;5032702;28;20033;-65
2023/04/25 08:05:08;;;;;;;11.85;3.95;;;;;;;;;;5032629;28;20017;-62
2023/04/25 08:07:33;;;;;;;13.20;4.55;;;;;;;;;;5018149;28;20517;-61
2023/04/25 08:09:58;;;;;;;14.05;4.57;;;;;;;;;;5020524;28;20061;-64
2023/04/25 08:12:23;;;;;;;7.75;2.95;;;;;;;;;;5028450;28;20097;-65
2023/04/25 08:14:49;;;;;;;12.32;2.72;;;;;;;;;;5025790;28;20022;-64
2023/04/25 08:17:15;;;;;;;5.57;2.00;;;;;;;;;;5031786;28;20100;-64
2023/04/25 08:19:40;;;;;;;6.05;2.13;;;;;;;;;;5032368;28;20411;-65
2023/04/25 08:22:05;;;;;;;12.55;2.35;;;;;;;;;;5032403;28;20518;-63
2023/04/25 08:24:30;;;;;;;8.85;2.20;;;;;;;;;;5031832;28;20025;-64
2023/04/25 08:26:55;;;;;;;7.78;2.20;;;;;;;;;;5032246;28;20035;-65
2023/04/25 08:29:23;;;;;;;9.90;1.73;;;;;;;;;;5025784;28;20026;-63
2023/04/25 08:31:48;;;;;;;8.93;2.10;;;;;;;;;;5027637;28;20013;-64
2023/04/25 08:34:13;;;;;;;10.82;2.13;;;;;;;;;;5019330;28;20029;-65
2023/04/25 08:36:39;;;;;;;12.32;2.53;;;;;;;;;;5016547;28;20443;-63
2023/04/25 08:39:04;;;;;;;8.63;2.33;;;;;;;;;;5020378;28;20037;-59
2023/04/25 08:41:29;;;;;;;6.53;1.80;;;;;;;;;;5020151;28;20072;-64
2023/04/25 08:43:56;;;;;;;8.52;1.80;;;;;;;;;;5017996;28;20026;-64
2023/04/25 08:46:21;;;;;;;12.13;3.45;;;;;;;;;;5018706;28;20029;-64
2023/04/25 08:48:46;;;;;;;8.02;2.63;;;;;;;;;;5020646;28;20440;-63
2023/04/25 08:51:17;;;;;;;14.77;2.35;;;;;;;;;;5019097;28;20422;-63
2023/04/25 08:53:43;;;;;;;10.15;2.30;;;;;;;;;;5020304;28;20021;-63
2023/04/25 08:56:09;;;;;;;11.18;2.78;;;;;;;;;;5017649;28;20053;-64
2023/04/25 08:58:35;;;;;;;9.20;1.80;;;;;;;;;;5019954;28;20017;-63
2023/04/25 09:01:00;;;;;;;10.05;2.60;;;;;;;;;;5017513;28;20017;-63
2023/04/25 09:03:26;;;;;;;6.05;1.98;;;;;;;;;;5019311;28;20390;-63
2023/04/25 09:05:51;;;;;;;10.45;1.98;;;;;;;;;;5018756;28;20030;-64
2023/04/25 09:08:17;;;;;;;18.13;2.20;;;;;;;;;;5018530;28;20039;-64
2023/04/25 09:10:42;;;;;;;7.35;2.15;;;;;;;;;;5019424;28;20549;-64
2023/04/25 09:13:14;;;;;;;8.48;1.80;;;;;;;;;;5020334;28;20040;-64
2023/04/25 09:15:51;;;;;;;7.68;2.50;;;;;;;;;;5027374;28;20025;-64
2023/04/25 09:18:25;;;;;;;15.45;2.80;;;;;;;;;;5031071;28;20021;-62
2023/04/25 09:20:52;;;;;;;9.70;2.30;;;;;;;;;;5046541;28;20561;-64
2023/04/25 09:23:19;;;;;;;10.38;2.28;;;;;;;;;;5031648;28;20061;-63
2023/04/25 09:25:46;;;;;;;15.95;3.22;;;;;;;;;;5030338;28;20029;-64
2023/04/25 09:28:11;;;;;;;9.55;2.63;;;;;;;;;;5030781;28;20487;-64
2023/04/25 09:30:37;;;;;;;10.88;2.30;;;;;;;;;;5017393;28;20104;-61
2023/04/25 09:33:06;;;;;;;7.90;2.08;;;;;;;;;;5028515;28;20037;-63
2023/04/25 09:35:35;;;;;;;14.13;2.72;;;;;;;;;;5029113;28;20566;-63
2023/04/25 09:38:00;;;;;;;;;;;;;;;;;;5031369;28;20372;-64
2023/04/25 09:40:26;;;;;;;10.63;2.38;;;;;;;;;;5031502;28;19912;-62
2023/04/25 09:42:51;;;;;;;9.82;2.90;;;;;;;;;;5029186;28;20028;-64
2023/04/25 09:45:16;;;;;;;10.77;3.17;;;;;;;;;;5027155;28;20032;-63
2023/04/25 09:47:43;;;;;;;10.27;2.50;;;;;;;;;;5027305;28;20116;-64
2023/04/25 09:50:16;;;;;;;17.75;2.78;;;;;;;;;;5033182;28;20013;-64
2023/04/25 09:52:41;;;;;;;13.13;2.67;;;;;;;;;;5024645;28;20079;-63
2023/04/25 09:55:06;;;;;;;13.10;2.67;;;;;;;;;;5029789;28;20014;-64
2023/04/25 09:57:32;;;;;;;13.05;2.60;;;;;;;;;;5028956;28;20040;-64
2023/04/25 09:59:58;;;;;;;13.60;3.15;;;;;;;;;;5022297;28;20108;-66
2023/04/25 10:02:25;;;;;;;11.48;3.42;;;;;;;;;;5028365;28;20021;-64
2023/04/25 10:04:54;;;;;;;12.30;3.95;;;;;;;;;;5020769;28;20021;-66
2023/04/25 10:07:21;;;;;;;14.57;3.65;;;;;;;;;;5028898;28;20068;-65
2023/04/25 10:09:47;;;;;;;15.35;3.60;;;;;;;;;;5019942;28;20121;-65
2023/04/25 10:12:13;;;;;;;12.98;4.07;;;;;;;;;;5030121;28;20026;-64
2023/04/25 10:14:39;;;;;;;19.23;3.78;;;;;;;;;;5029766;28;20121;-62
2023/04/25 10:17:05;;;;;;;11.52;4.50;;;;;;;;;;5029541;28;20121;-64
2023/04/25 10:19:30;;;;;;;14.40;4.53;;;;;;;;;;5030330;28;20086;-65
2023/04/25 10:22:02;;;;;;;18.13;3.67;;;;;;;;;;5015290;28;20028;-65
2023/04/25 10:24:27;;;;;;;18.55;4.32;;;;;;;;;;5027597;28;20060;-63
2023/04/25 10:26:53;;;;;;;26.35;3.95;;;;;;;;;;5013247;28;20629;-65
2023/04/25 10:29:23;;;;;;;19.80;4.25;;;;;;;;;;5017415;28;20040;-65
2023/04/25 10:31:49;;;;;;;15.15;4.07;;;;;;;;;;5017118;28;20021;-64
2023/04/25 10:34:15;;;;;;;14.45;4.65;;;;;;;;;;5016097;28;20064;-64
2023/04/25 10:36:40;;;;;;;18.95;3.80;;;;;;;;;;5017037;28;20029;-63
2023/04/25 10:39:09;;;;;;;19.63;4.43;;;;;;;;;;5015857;28;20391;-64
2023/04/25 10:41:48;;;;;;;12.73;5.03;;;;;;;;;;5017886;28;20486;-63
2023/04/25 10:44:13;;;;;;;15.77;3.65;;;;;;;;;;5015985;28;20037;-65
2023/04/25 10:46:38;;;;;;;19.65;3.92;;;;;;;;;;5014091;28;20487;-60
2023/04/25 10:49:04;;;;;;;18.00;4.57;;;;;;;;;;5018954;28;20491;-63
2023/04/25 10:51:33;;;;;;;17.90;4.13;;;;;;;;;;5020565;28;20640;-63
2023/04/25 10:53:59;;;;;;;15.23;4.13;;;;;;;;;;5015761;28;20025;-64
2023/04/25 10:56:25;;;;;;;18.95;4.20;;;;;;;;;;5016334;28;20025;-62
2023/04/25 10:58:50;;;;;;;13.77;4.05;;;;;;;;;;5016660;28;20036;-64
2023/04/25 11:01:19;;;;;;;18.95;4.18;;;;;;;;;;5016835;28;20029;-63
2023/04/25 11:03:44;;;;;;;19.90;4.63;;;;;;;;;;5018015;28;20033;-63
2023/04/25 11:06:23;;;;;;;15.85;4.22;;;;;;;;;;5016194;28;20025;-64
2023/04/25 11:08:51;;;;;;;22.58;4.53;;;;;;;;;;5019410;28;20033;-61
2023/04/25 11:11:19;;;;;;;23.02;4.30;;;;;;;;;;5020647;28;20044;-65
2023/04/25 11:13:47;;;;;;;12.63;4.03;;;;;;;;;;5017500;28;20099;-64
2023/04/25 11:16:13;;;;;;;13.48;3.83;;;;;;;;;;5015407;28;20132;-64
2023/04/25 11:18:40;;;;;;;17.75;5.32;;;;;;;;;;5017048;28;20164;-64
2023/04/25 11:21:06;;;;;;;13.05;3.42;;;;;;;;;;5018134;28;20037;-65
2023/04/25 11:23:31;;;;;;;12.95;3.35;;;;;;;;;;5015257;28;20029;-65
2023/04/25 11:25:57;;;;;;;17.83;3.22;;;;;;;;;;5015019;28;20034;-65
2023/04/25 11:28:23;;;;;;;13.80;3.47;;;;;;;;;;5017447;28;20038;-64
2023/04/25 11:30:51;;;;;;;15.00;3.08;;;;;;;;;;5016056;28;20036;-67
2023/04/25 11:33:17;;;;;;;15.25;3.60;;;;;;;;;;5015317;28;20037;-65
2023/04/25 11:35:42;;;;;;;13.50;3.72;;;;;;;;;;5013855;28;20041;-65
2023/04/25 11:38:07;;;;;;;18.38;3.97;;;;;;;;;;5016810;28;20136;-66
2023/04/25 11:40:32;;;;;;;6.90;2.92;;;;;;;;;;5022958;28;20032;-64
2023/04/25 11:42:59;;;;;;;12.23;2.60;;;;;;;;;;5028192;28;20086;-66
2023/04/25 11:45:25;;;;;;;15.48;2.53;;;;;;;;;;5023941;28;20022;-66
2023/04/25 11:47:50;;;;;;;8.85;2.50;;;;;;;;;;5026271;28;20032;-66
2023/04/25 11:50:15;;;;;;;20.60;3.30;;;;;;;;;;5029318;28;20024;-66
2023/04/25 11:52:47;;;;;;;13.32;1.95;;;;;;;;;;5041962;22;20118;-72
2023/04/25 11:55:13;;;;;;;12.27;2.50;;;;;;;;;;5027338;28;20495;-70
2023/04/25 11:57:39;;;;;;;13.90;3.22;;;;;;;;;;5028077;28;20022;-72
2023/04/25 12:00:05;;;;;;;11.40;2.17;;;;;;;;;;5028316;28;20035;-71
2023/04/25 12:02:31;;;;;;;11.45;2.65;;;;;;;;;;5023783;28;20025;-71
2023/04/25 12:04:59;;;;;;;14.38;2.47;;;;;;;;;;5007555;28;20017;-69
2023/04/25 12:07:28;;;;;;;17.27;2.90;;;;;;;;;;5008493;28;20120;-69
2023/04/25 12:09:53;;;;;;;8.70;1.95;;;;;;;;;;5011258;28;20445;-67
2023/04/25 12:12:19;;;;;;;15.43;2.65;;;;;;;;;;5012169;28;20029;-71
2023/04/25 12:14:47;;;;;;;13.23;2.38;;;;;;;;;;4999122;28;20637;-71
2023/04/25 12:17:12;;;;;;;11.82;2.10;;;;;;;;;;5004855;28;20022;-68
2023/04/25 12:19:40;;;;;;;5.57;1.77;;;;;;;;;;5019818;28;20463;-71
2023/04/25 12:22:19;;;;;;;7.72;2.60;;;;;;;;;;5016997;28;20032;-68
2023/04/25 12:24:44;;;;;;;7.90;2.15;;;;;;;;;;5017550;28;20018;-69
2023/04/25 12:27:09;;;;;;;10.82;2.47;;;;;;;;;;5010667;28;20009;-72
2023/04/25 12:29:35;;;;;;;14.15;3.08;;;;;;;;;;4998405;28;20057;-68
2023/04/25 12:32:01;;;;;;;16.23;2.30;;;;;;;;;;5000462;28;20097;-71
2023/04/25 12:34:27;;;;;;;10.23;2.67;;;;;;;;;;4998885;28;20030;-67
2023/04/25 12:36:52;;;;;;;9.85;2.33;;;;;;;;;;5012875;28;20028;-71
2023/04/25 12:39:19;;;;;;;17.05;2.67;;;;;;;;;;5013524;28;20025;-69
2023/04/25 12:41:45;;;;;;;11.35;3.47;;;;;;;;;;5002537;28;20022;-67
2023/04/25 12:44:10;;;;;;;30.50;5.30;;;;;;;;;;4996051;28;20022;-71
2023/04/25 12:46:36;;;;;;;10.88;2.70;;;;;;;;;;5008367;28;20023;-69
2023/04/25 12:49:03;;;;;;;11.13;2.22;;;;;;;;;;5002308;28;20030;-72
2023/04/25 12:51:28;;;;;;;14.93;2.35;;;;;;;;;;5015220;28;20491;-71
2023/04/25 12:53:53;;;;;;;16.92;4.00;;;;;;;;;;5023632;28;20039;-67
2023/04/25 12:56:19;;;;;;;11.05;3.40;;;;;;;;;;4997479;28;20176;-70
2023/04/25 12:58:44;;;;;;;13.80;2.38;;;;;;;;;;5004100;28;20417;-71
2023/04/25 13:01:09;;;;;;;7.70;1.92;;;;;;;;;;5017001;28;20045;-69
2023/04/25 13:03:34;;;;;;;9.00;2.45;;;;;;;;;;5009792;28;20026;-69
2023/04/25 13:06:00;;;;;;;10.10;2.33;;;;;;;;;;5015901;28;20498;-67
2023/04/25 13:08:26;;;;;;;19.20;2.05;;;;;;;;;;4991631;28;20053;-68
2023/04/25 13:10:51;;;;;;;8.23;1.70;;;;;;;;;;5010405;28;20132;-71
2023/04/25 13:13:17;;;;;;;7.30;1.35;;;;;;;;;;5009301;28;20036;-69
2023/04/25 13:15:42;;;;;;;7.18;1.48;;;;;;;;;;5010346;28;20645;-69
2023/04/25 13:18:07;;;;;;;5.85;1.90;;;;;;;;;;5005346;28;20052;-72
2023/04/25 13:20:33;;;;;;;5.53;1.27;;;;;;;;;;5017528;28;20029;-67
2023/04/25 13:22:58;;;;;;;5.07;1.55;;;;;;;;;;5015557;28;20077;-72
2023/04/25 13:25:23;;;;;;;12.32;1.80;;;;;;;;;;5019058;28;20089;-70
2023/04/25 13:27:48;;;;;;;15.40;2.70;;;;;;;;;;5008414;28;20699;-71
2023/04/25 13:30:13;;;;;;;9.88;1.70;;;;;;;;;;5017859;28;20532;-71
2023/04/25 13:32:39;;;;;;;12.13;2.17;;;;;;;;;;4996642;28;20029;-72
2023/04/25 13:35:05;;;;;;;15.65;1.60;;;;;;;;;;5000447;28;20013;-72
2023/04/25 13:37:32;;;;;;;9.38;1.60;;;;;;;;;;5013256;28;20071;-72
2023/04/25 13:39:58;;;;;;;6.18;1.83;;;;;;;;;;5018659;28;20030;-72
2023/04/25 13:42:23;;;;;;;9.18;2.55;;;;;;;;;;5023046;28;20036;-71
2023/04/25 13:44:49;;;;;;;6.93;1.80;;;;;;;;;;5009881;28;20096;-70
2023/04/25 13:47:14;;;;;;;5.03;1.60;;;;;;;;;;5009795;28;20018;-70
2023/04/25 13:49:39;;;;;;;11.32;1.75;;;;;;;;;;5008187;28;20693;-70
2023/04/25 13:52:05;;;;;;;6.97;1.88;;;;;;;;;;5023450;28;20106;-67
2023/04/25 13:54:31;;;;;;;14.77;1.73;;;;;;;;;;5009090;28;20494;-70
2023/04/25 13:56:58;;;;;;;6.93;1.58;;;;;;;;;;5007719;28;20041;-71
2023/04/25 13:59:24;;;;;;;11.10;2.22;;;;;;;;;;5020238;28;20048;-71
2023/04/25 14:01:49;;;;;;;8.48;2.03;;;;;;;;;;5015721;28;20056;-71
2023/04/25 14:04:15;;;;;;;6.57;1.92;;;;;;;;;;5028549;28;20036;-66
2023/04/25 14:06:41;;;;;;;17.92;2.45;;;;;;;;;;5029058;28;20021;-72
2023/04/25 14:09:09;;;;;;;6.53;1.80;;;;;;;;;;5011423;28;20449;-70
2023/04/25 14:11:35;;;;;;;12.88;2.25;;;;;;;;;;5026727;28;20101;-69
2023/04/25 14:14:00;;;;;;;14.10;1.77;;;;;;;;;;5028931;28;20716;-73
2023/04/25 14:16:25;;;;;;;6.40;1.75;;;;;;;;;;5028437;28;20171;-74
2023/04/25 14:18:51;;;;;;;7.55;1.50;;;;;;;;;;5028744;28;20629;-71
2023/04/25 14:21:16;;;;;;;11.25;1.73;;;;;;;;;;5012074;28;20049;-73
2023/04/25 14:23:41;;;;;;;4.97;1.35;;;;;;;;;;5018867;28;20017;-70
2023/04/25 14:26:06;;;;;;;8.15;1.58;;;;;;;;;;5016354;28;20390;-72